x

8419317 - Wells, Me (welm1) Weather Station

3:18 - Tue 22nd Aug 2017 All times are EDT. -4 hours from GMT.

  • Wind
    18mph, 21mph gusts
  • Sea Temp 64°f
  • Air Temp 71°f
  • Sea Pressure 1009.6mb
  • 8419317 - Wells, Me
  • 8419317 - Wells, Me

More Historic Weather Station data

Upgrade to MSW Pro to gain access to the past 30 days of data for over 8000 Wavebouys and Weather Stations around the globe.

Join

Comparision Forecast

View Surf forecast
   
mar. 08/22 3:18 18 21 mph 1009.6mb 64f 71f
3:12 18 22 mph 1009.7mb 64f 71f
3:06 20 22 mph 1009.8mb 64f 71f
3:00 18 24 mph 1009.9mb 64f 72f
2:54 18 24 mph 1010.1mb 64f 71f
2:48 18 22 mph 1010.3mb 64f 71f
2:42 18 22 mph 1010.5mb 63f 71f
2:36 17 22 mph 1010.5mb 64f 71f
2:30 20 22 mph 1010.5mb 64f 72f
2:24 20 23 mph 1010.8mb 64f 72f
2:18 20 24 mph 1010.9mb 63f 72f
2:12 20 22 mph 1011mb 63f 72f
2:06 18 22 mph 1011mb 63f 72f
2:00 18 22 mph 1011.1mb 63f 72f
1:54 17 21 mph 1011.3mb 63f 72f
1:48 18 21 mph 1011.4mb 63f 71f
1:42 15 17 mph 1011.5mb 63f 71f
1:36 17 20 mph 1011.5mb 62f 71f
1:30 18 22 mph 1011.6mb 62f 71f
1:24 16 21 mph 1011.7mb 62f 70f
1:18 17 21 mph 1011.7mb 62f 71f
1:12 16 18 mph 1011.7mb 62f 71f
1:06 15 17 mph 1011.9mb 62f 71f
1:00 15 17 mph 1012mb 62f 71f
12:54 14 16 mph 1012.1mb 62f 70f
12:48 14 18 mph 1012.2mb 62f 70f
12:42 16 18 mph 1012.3mb 62f 69f
12:36 15 18 mph 1012.4mb 62f 69f
12:30 15 20 mph 1012.4mb 62f 69f
12:24 17 20 mph 1012.5mb 62f 69f
12:18 16 20 mph 1012.6mb 62f 69f
12:12 15 18 mph 1012.8mb 62f 68f
12:06 14 18 mph 1012.9mb 62f 69f
12:00 14 18 mph 1013.1mb 62f 69f
11:54 14 16 mph 1013.2mb 62f 68f
11:48 15 18 mph 1013.3mb 62f 68f
11:42 15 18 mph 1013.5mb 62f 69f
11:36 16 20 mph 1013.6mb 62f 68f
11:30 14 17 mph 1013.5mb 62f 68f
11:24 13 16 mph 1013.6mb 62f 68f
11:18 10 14 mph 1013.7mb 61f 68f
11:12 10 14 mph 1013.8mb 61f 68f
11:06 11 15 mph 1013.8mb 61f 68f
11:00 10 14 mph 1013.9mb 61f 68f
10:54 10 14 mph 1013.9mb 61f 68f
10:48 11 15 mph 1014mb 61f 68f
10:42 13 15 mph 1014mb 61f 68f
10:36 11 14 mph 1014.1mb 61f 68f
10:30 11 14 mph 1014.2mb 61f 68f
10:24 10 13 mph 1014.2mb 61f 67f
10:18 11 15 mph 1014.2mb 61f 67f
10:12 9 11 mph 1014.2mb 61f 68f
10:06 9 13 mph 1014.2mb 61f 68f
10:00 10 13 mph 1014.4mb 61f 67f
9:54 7 9 mph 1014.4mb 61f 68f
9:48 7 8 mph 1014.4mb 61f 68f
9:42 7 9 mph 1014.6mb 61f 68f
9:36 8 9 mph 1014.7mb 61f 68f
9:30 6 7 mph 1014.6mb 61f 68f
9:24 7 8 mph 1014.6mb 61f 68f
9:18 6 7 mph 1014.7mb 61f 69f
9:12 5 7 mph 1014.7mb 61f 70f
9:06 3 6 mph 1014.8mb 61f 71f
9:00 2 5 mph 1014.9mb 62f 71f
8:54 2 2 mph 1014.9mb 63f 71f
8:48 2 3 mph 1014.9mb 63f 70f
8:42 3 5 mph 1015mb 63f 69f
8:36 5 7 mph 1015mb 63f 69f
8:30 3 6 mph 1015.1mb 63f 70f
8:24 5 6 mph 1015.3mb 63f 70f
8:18 1 3 mph 1015.3mb 63f 69f
8:12 2 3 mph 1015.2mb 63f 68f
8:06 3 6 mph 1015.2mb 63f 67f
8:00 3 5 mph 1015.3mb 63f 67f
7:54 1 3 mph 1015.4mb 63f 68f
7:48 3 5 mph 1015.3mb 63f 70f
7:42  -  1 mph 1015.4mb 63f 71f
7:36 1 1 mph 1015.5mb 63f 69f
7:30  -  1 mph 1015.6mb 63f 68f
7:24 1 2 mph 1015.5mb 63f 67f
7:18 1 2 mph 1015.5mb 63f 67f
7:12  -  1 mph 1015.5mb 63f 67f
7:06 1 2 mph 1015.5mb 63f 67f
7:00 1 2 mph 1015.6mb 62f 67f
6:54  -  1 mph 1015.6mb 62f 67f
6:48 1 1 mph 1015.5mb 62f 67f
6:42  -  2 mph 1015.5mb 62f 68f
6:36 2 2 mph 1015.5mb 62f 67f
6:30 1 2 mph 1015.5mb 62f 66f
6:24  -  1 mph 1015.5mb 62f 65f
6:18  -  2 mph 1015.6mb 62f 65f
6:12  -  2 mph 1015.6mb 62f 65f
6:06 1 2 mph 1015.6mb 62f 65f
6:00 1 2 mph 1015.6mb 62f 66f
5:54 2 5 mph 1015.7mb 62f 66f
5:48 3 5 mph 1015.6mb 62f 66f
5:42  -  1 mph 1015.5mb 62f 65f
5:36 1 1 mph 1015.5mb 62f 65f
5:30  -  1 mph 1015.6mb 62f 65f
5:24  -  1 mph 1015.5mb 62f 66f
5:18 1 2 mph 1015.5mb 62f 66f
5:12  -  5 mph 1015.6mb 62f 67f
5:06 3 5 mph 1015.6mb 62f 67f
5:00  -  2 mph 1015.5mb 62f 67f
4:54  -  1 mph 1015.5mb 62f 67f
4:48  -  1 mph 1015.5mb 62f 67f
4:42  -  1 mph 1015.5mb 62f 66f
4:36  -  0 mph 1015.5mb 62f 67f
4:30  -  3 mph 1015.5mb 62f 67f
4:24 1 3 mph 1015.5mb 62f 67f
4:18 2 5 mph 1015.6mb 62f 67f
4:12 2 3 mph 1015.6mb 62f 67f
4:06  -  1 mph 1015.5mb 62f 66f
4:00 1 3 mph 1015.4mb 62f 66f
3:54 2 2 mph 1015.6mb 62f 66f
3:48  -  1 mph 1015.7mb 62f 66f
3:42  -  2 mph 1015.6mb 61f 66f
3:36  -  2 mph 1015.7mb 61f 66f
3:30  -  1 mph 1015.8mb 61f 67f
3:24  -  0 mph 1015.9mb 61f 67f
3:18  -  2 mph 1015.9mb 61f 67f
3:12 1 2 mph 1016mb 61f 67f
3:06 1 5 mph 1016.1mb 61f 68f
3:00 2 6 mph 1016.1mb 61f 69f
2:54 3 6 mph 1016.2mb 61f 69f
2:48 3 6 mph 1016.3mb - -
2:42 3 7 mph 1016.4mb - -
2:36 3 6 mph 1016.5mb - -
2:30 3 8 mph 1016.6mb 61f 69f
2:24 6 8 mph 1016.7mb 61f 69f
2:18 6 9 mph 1016.7mb 61f 69f
2:12 6 9 mph 1016.6mb 61f 69f
2:06 7 9 mph 1016.7mb 61f 69f
2:00 6 9 mph 1016.8mb 61f 69f
1:54 5 8 mph 1016.8mb 61f 69f
1:48 5 9 mph 1016.8mb 61f 69f
1:42 5 9 mph 1016.9mb 61f 69f
1:36 6 10 mph 1016.9mb 61f 69f
1:30 6 10 mph 1017mb 61f 70f
1:24 7 10 mph 1017.1mb 61f 70f
1:18 6 9 mph 1017.1mb 61f 70f
1:12 6 8 mph 1017.1mb 61f 70f
1:06 6 8 mph 1017.1mb 61f 70f
1:00 6 8 mph 1017mb 60f 70f
12:54 6 8 mph 1017mb 60f 70f
12:48 5 7 mph 1017mb 60f 70f
12:42 5 7 mph 1017mb 60f 70f
12:36 5 7 mph 1016.9mb 60f 70f
12:30 6 8 mph 1017mb 60f 71f
12:24 5 7 mph 1017mb 60f 71f
12:18 6 8 mph 1017mb 60f 71f
12:12 6 8 mph 1017.1mb 60f 71f
12:06 5 7 mph 1017.1mb 60f 71f
12:00 3 6 mph 1017.1mb 60f 70f
lun. 08/21 11:54 5 8 mph 1017mb 60f 71f
11:48 5 7 mph 1016.9mb 60f 71f
11:42 6 8 mph 1016.9mb 60f 71f
11:36 6 7 mph 1017mb 60f 71f
11:30 5 8 mph 1016.9mb 60f 71f
11:24 6 8 mph 1016.9mb 60f 71f
11:18 5 7 mph 1016.8mb 60f 71f
11:12 5 7 mph 1016.8mb 60f 71f
11:06 6 8 mph 1016.8mb 60f 71f
11:00 3 6 mph 1016.9mb 60f 69f
10:54 2 2 mph 1017mb 60f 67f
10:48  -  1 mph 1017mb 60f 66f
10:42 1 1 mph 1017.1mb 60f 65f
10:36  -  2 mph 1017.1mb 60f 66f
10:30 2 3 mph 1017mb 60f 66f
10:24 2 2 mph 1017.1mb 60f 65f
10:18  -  2 mph 1017.2mb 60f 67f
10:12 3 3 mph 1017.2mb 60f 67f
10:06 1 1 mph 1017.2mb 60f 67f
10:00 1 1 mph 1017.2mb 60f 67f
9:54  -  1 mph 1017.2mb 60f 67f
9:48  -  2 mph 1017.3mb 60f 69f
9:42 2 2 mph 1017.5mb 60f 70f
9:36 1 1 mph 1017.5mb 60f 70f
9:30 2 2 mph 1017.5mb 60f 70f
9:24 2 3 mph 1017.5mb 60f 70f
9:18 3 3 mph 1017.5mb 60f 70f
9:12 2 3 mph 1017.6mb 60f 71f
9:06 2 3 mph 1017.6mb 61f 71f
9:00 2 3 mph 1017.6mb 61f 70f
8:54 1 3 mph 1017.5mb 61f 68f
8:48 2 3 mph 1017.5mb 61f 68f
8:42 2 3 mph 1017.4mb 61f 71f
8:36 2 5 mph 1017.4mb 61f 72f
8:30 2 2 mph 1017.5mb 62f 71f
8:24 1 6 mph 1017.4mb 62f 74f
8:18 5 6 mph 1017.3mb 63f 75f
8:12 5 6 mph 1017.4mb 64f 74f
8:06 1 3 mph 1017.4mb 65f 74f
8:00 3 6 mph 1017.4mb 66f 75f
7:54 5 6 mph 1017.3mb 66f 74f
7:48 3 6 mph 1017.3mb 67f 71f
7:42 5 6 mph 1017.3mb 67f 72f
7:36 3 6 mph 1017.3mb 67f 74f
7:30 5 7 mph 1017.2mb 67f 77f
7:24 5 7 mph 1017.3mb 67f 77f
7:18 7 8 mph 1017.3mb 67f 78f
7:12 6 6 mph 1017.4mb 67f 74f
7:06 6 7 mph 1017.4mb 67f 74f
7:00 6 7 mph 1017.4mb 67f 80f
6:54 6 7 mph 1017.4mb 67f 80f
6:48 6 8 mph 1017.3mb 67f 81f
6:42 6 8 mph 1017.3mb 67f 81f
6:36 6 7 mph 1017.2mb 67f 81f
6:30 6 8 mph 1017.2mb 67f 82f
6:24 5 7 mph 1017.3mb 66f 82f
6:18 3 6 mph 1017.3mb 66f 82f
6:12 3 7 mph 1017.3mb 66f 83f
6:06 7 10 mph 1017.4mb 65f 83f
6:00 8 10 mph 1017.4mb 65f 83f
5:54 5 11 mph 1017.4mb 65f 83f
5:48 6 10 mph 1017.4mb 65f 83f
5:42 8 11 mph 1017.5mb 65f 83f
5:36 6 13 mph 1017.5mb 65f 83f
5:30 8 14 mph 1017.5mb 65f 83f
5:24 7 13 mph 1017.6mb 65f 83f
5:18 10 14 mph 1017.6mb 64f 83f
5:12 9 14 mph 1017.6mb 65f 83f
5:06 10 13 mph 1017.6mb 64f 83f
5:00 8 14 mph 1017.5mb 64f 84f
4:54 8 14 mph 1017.5mb 64f 84f
4:48 7 14 mph 1017.5mb 64f 84f
4:42 6 11 mph 1017.6mb 64f 84f
4:36 8 15 mph 1017.6mb 65f 83f
4:30 14 16 mph 1017.6mb 65f 83f
4:24 8 16 mph 1017.7mb 65f 83f
4:18 9 15 mph 1017.7mb 65f 83f
4:12 8 11 mph 1017.8mb 65f 83f
4:06 6 13 mph 1017.8mb 65f 83f
4:00 8 13 mph 1017.9mb 65f 83f
3:54 7 11 mph 1017.8mb 65f 83f
3:48 7 14 mph 1017.9mb 65f 81f
3:42 6 13 mph 1017.9mb 64f 77f
3:36 6 9 mph 1017.9mb 64f 76f
3:30 8 11 mph 1018mb 64f 74f
3:24 10 11 mph 1018mb 64f 73f
3:18 10 11 mph 1018mb 64f 73f
3:12 10 11 mph 1018mb 63f 73f
3:06 11 13 mph 1018.1mb 63f 72f
3:00 11 15 mph 1018.1mb 63f 73f
2:54 14 15 mph 1018.1mb 62f 73f
2:48 14 20 mph 1018.1mb 62f 73f
2:42 15 20 mph 1018.1mb 62f 72f
2:36 17 21 mph 1018.2mb 63f 73f
2:30 16 25 mph 1018.2mb 62f 73f
2:24 18 21 mph 1018.3mb 62f 73f
2:18 21 23 mph 1018.5mb 62f 73f
2:12 18 23 mph 1018.5mb 62f 72f
2:06 18 22 mph 1018.6mb 62f 71f
2:00 15 18 mph 1018.7mb 62f 70f
1:54 16 20 mph 1018.7mb 62f 72f
1:48 17 21 mph 1018.8mb 61f 71f
1:42 17 21 mph 1018.8mb 61f 72f
1:36 18 22 mph 1018.9mb 61f 71f
1:30 18 21 mph 1019mb 61f 73f
1:24 16 18 mph 1019.1mb 61f 72f
1:18 16 18 mph 1019.1mb 60f 71f
1:12 15 16 mph 1019.1mb 60f 71f
1:06 13 14 mph 1019.2mb 60f 72f
1:00 10 14 mph 1019.2mb 60f 71f
12:54 14 15 mph 1019.2mb 60f 71f
12:48 10 13 mph 1019.3mb 60f 73f
12:42 8 10 mph 1019.3mb 60f 74f
12:36 8 8 mph 1019.4mb 60f 75f
12:30 6 8 mph 1019.5mb 60f 74f
12:24 7 11 mph 1019.6mb 60f 73f
12:18 7 9 mph 1019.6mb 60f 74f
12:12 7 9 mph 1019.8mb 60f 73f
12:06 7 9 mph 1019.8mb 60f 72f
12:00 7 9 mph 1019.9mb 60f 73f
11:54 8 10 mph 1019.9mb 60f 73f
11:48 8 9 mph 1019.9mb 60f 73f
11:42 6 7 mph 1019.9mb 60f 74f
11:36 7 9 mph 1019.9mb 60f 74f
11:30 6 9 mph 1019.9mb 60f 78f
11:24 6 8 mph 1019.9mb 60f 76f
11:18 5 6 mph 1019.9mb 60f 78f
11:12 3 6 mph 1019.9mb 60f 78f
11:06 3 6 mph 1019.9mb 60f 78f
11:00 5 9 mph 1019.9mb 60f 78f
10:54 3 8 mph 1019.9mb 60f 78f
10:48 5 7 mph 1019.9mb 60f 78f
10:42 2 6 mph 1019.9mb 59f 78f
10:36 7 8 mph 1019.9mb 60f 77f
10:30 6 8 mph 1019.9mb 59f 77f
10:24 5 7 mph 1020mb 59f 77f
10:18 3 8 mph 1020mb 59f 76f
10:12 6 8 mph 1020mb 59f 76f
10:06 7 9 mph 1020.1mb 59f 75f
10:00 5 7 mph 1020.1mb 59f 75f
9:54 5 8 mph 1020.1mb 59f 75f
9:48 7 9 mph 1020.1mb 59f 74f
9:42 6 8 mph 1020.2mb 59f 74f
9:36 3 6 mph 1020.2mb 59f 74f
9:30 5 8 mph 1020.2mb 59f 74f
9:24 6 7 mph 1020.2mb 59f 73f
9:18 1 6 mph 1020.3mb 59f 73f
9:12 2 5 mph 1020.3mb 59f 73f
9:06 3 6 mph 1020.4mb 59f 72f
9:00 1 6 mph 1020.5mb 59f 72f
8:54 1 6 mph 1020.6mb 59f 72f
8:48  -  3 mph 1020.7mb 60f 73f
8:42 2 3 mph 1020.7mb 60f 71f
8:36 2 3 mph 1020.6mb 60f 71f
8:30 2 3 mph 1020.5mb 60f 70f
8:24 3 5 mph 1020.6mb 60f 69f
8:18 5 5 mph 1020.7mb 61f 69f
8:12 2 5 mph 1020.6mb 62f 70f
8:06 3 5 mph 1020.6mb 62f 69f
8:00 2 3 mph 1020.7mb 62f 68f
7:54 2 2 mph 1020.7mb 62f 67f
7:48  -  3 mph 1020.6mb 62f 68f
7:42 2 3 mph 1020.6mb 62f 67f
7:36  -  2 mph 1020.5mb 62f 67f
7:30 1 5 mph 1020.5mb 62f 66f
7:24 3 5 mph 1020.4mb 62f 65f
7:18 3 7 mph 1020.3mb 62f 66f
7:12 3 8 mph 1020.2mb 62f 66f
7:06 5 8 mph 1020.3mb 62f 65f
7:00 5 8 mph 1020.3mb 62f 65f
6:54 6 9 mph 1020.4mb 62f 65f
6:48 6 9 mph 1020.4mb 62f 65f
6:42 6 8 mph 1020.3mb 62f 64f
6:36 6 8 mph 1020.3mb 62f 64f
6:30 6 10 mph 1020.4mb 62f 63f
6:24 7 11 mph 1020.4mb 62f 63f
6:18 8 11 mph 1020.3mb 61f 63f
6:12 7 11 mph 1020.3mb 61f 63f
6:06 7 11 mph 1020.3mb 61f 63f
6:00 7 10 mph 1020.3mb 61f 63f
5:54 7 11 mph 1020.3mb 61f 63f
5:48 7 11 mph 1020.2mb 61f 63f
5:42 7 11 mph 1020.2mb 61f 64f
5:36 7 11 mph 1020.1mb 61f 64f
5:30 7 10 mph 1020.1mb 61f 64f
5:24 7 10 mph 1020mb 61f 64f
5:18 7 10 mph 1019.8mb 61f 64f
5:12 6 9 mph 1019.8mb 61f 64f
5:06 8 11 mph 1019.7mb 61f 64f
5:00 8 10 mph 1019.6mb 61f 64f
4:54 7 10 mph 1019.6mb 61f 64f
4:48 7 13 mph 1019.5mb 61f 64f
4:42 8 11 mph 1019.5mb 61f 64f
4:36 9 11 mph 1019.4mb 61f 64f
4:30 7 11 mph 1019.4mb 61f 64f
4:24 7 11 mph 1019.3mb 61f 64f
4:18 8 11 mph 1019.2mb 61f 64f
4:12 9 13 mph 1019.2mb 60f 64f
4:06 9 13 mph 1019.1mb 60f 64f
4:00 8 13 mph 1019.1mb 60f 65f
3:54 10 14 mph 1019mb 60f 65f
3:48 11 15 mph 1019mb 60f 65f
3:42 9 14 mph 1019mb 60f 65f
3:36 9 14 mph 1019mb 60f 64f
3:30 10 14 mph 1018.9mb 60f 64f
3:24 7 13 mph 1019mb 60f 64f
3:18 8 13 mph 1019.1mb 60f 64f
3:12 9 11 mph 1019.1mb 60f 64f
3:06 8 13 mph 1019mb 60f 64f
3:00 7 9 mph 1019.1mb 60f 64f
2:54 7 11 mph 1019.1mb 60f 64f
2:48 8 11 mph 1019.1mb - -
2:42 8 11 mph 1019.1mb - -
2:36 8 10 mph 1019.1mb - -
2:30 8 13 mph 1019.1mb 60f 65f
2:24 7 10 mph 1019.1mb 60f 65f
2:18 7 11 mph 1019mb 59f 65f
2:12 6 9 mph 1019mb 59f 65f
2:06 6 9 mph 1019mb 59f 65f
2:00 6 10 mph 1019mb 59f 65f
1:54 7 13 mph 1019mb 59f 66f
1:48 6 11 mph 1019mb - -
1:42 6 8 mph 1019mb - -
1:36 6 8 mph 1019mb - -
1:30 6 8 mph 1019mb 59f 65f
1:24 6 8 mph 1019mb 59f 64f
1:18 6 8 mph 1019mb 59f 64f
1:12 5 6 mph 1019.1mb 59f 65f
1:06 3 6 mph 1019.1mb 59f 65f
1:00 3 6 mph 1019mb 59f 65f
12:54 2 5 mph 1019mb 59f 65f
12:48 2 6 mph 1019mb 59f 66f
12:42 3 6 mph 1018.9mb 59f 66f
12:36 3 7 mph 1018.9mb 59f 67f
12:30 2 7 mph 1018.8mb 59f 67f
12:24 5 8 mph 1018.7mb 59f 67f
12:18 6 7 mph 1018.7mb 59f 67f
12:12 5 7 mph 1018.7mb 59f 66f
12:06 5 7 mph 1018.6mb 59f 66f
12:00 5 7 mph 1018.6mb 59f 66f
dim. 08/20 11:54 6 8 mph 1018.5mb 59f 66f
11:48 5 7 mph 1018.4mb 59f 66f
11:42 5 7 mph 1018.4mb 59f 66f
11:36 5 7 mph 1018.4mb 59f 66f
11:30 3 6 mph 1018.3mb 59f 66f
11:24 3 6 mph 1018.3mb 59f 66f
11:18 5 7 mph 1018.3mb 59f 66f
11:12 5 6 mph 1018.2mb 59f 66f
11:06 5 6 mph 1018.2mb 59f 66f
11:00 2 3 mph 1018.2mb 59f 66f
10:54 2 3 mph 1018.1mb 59f 67f
10:48 2 3 mph 1018mb 59f 67f
10:42 2 3 mph 1018.1mb 59f 67f
10:36 2 3 mph 1018.1mb 59f 68f
10:30 2 3 mph 1018.1mb 59f 68f
10:24 2 3 mph 1018mb 59f 68f
10:18 2 3 mph 1018mb 59f 69f
10:12 3 5 mph 1018mb 58f 69f
10:06 3 5 mph 1018mb 58f 70f
10:00 3 6 mph 1017.9mb 58f 70f
9:54 5 7 mph 1017.9mb 58f 70f
9:48 5 7 mph 1017.8mb 58f 69f
9:42 6 7 mph 1017.7mb 58f 69f
9:36 6 8 mph 1017.6mb 58f 70f
9:30 6 7 mph 1017.5mb 58f 70f
9:24 5 7 mph 1017.5mb 58f 70f
9:18 5 6 mph 1017.5mb 58f 69f
9:12 3 6 mph 1017.4mb 58f 69f
9:06 5 5 mph 1017.4mb 58f 68f
9:00 3 3 mph 1017.4mb 58f 68f
8:54 3 6 mph 1017.3mb 58f 70f
8:48 3 6 mph 1017.1mb 58f 71f
8:42 3 6 mph 1017mb 58f 71f
8:36 5 7 mph 1016.9mb 59f 72f
8:30 6 8 mph 1016.9mb 59f 72f
8:24 6 8 mph 1016.7mb 59f 72f
8:18 5 7 mph 1016.7mb 59f 72f
8:12 2 3 mph 1016.7mb 59f 73f
8:06 2 5 mph 1016.8mb 59f 74f
8:00 5 6 mph 1016.6mb 59f 74f
7:54  -  6 mph 1016.5mb 59f 74f
7:48 3 6 mph 1016.5mb 59f 74f
7:30 3 7 mph 1016.5mb 60f 75f
7:24 5 7 mph 1016.4mb 62f 76f
7:18 3 7 mph 1016.3mb 63f 76f
7:12 5 7 mph 1016.2mb 64f 76f
7:06 5 8 mph 1016.2mb 65f 76f
7:00 5 7 mph 1016.1mb 66f 77f
6:54 7 10 mph 1016mb 67f 77f
6:48 6 10 mph 1015.9mb 68f 77f
6:42 7 9 mph 1015.8mb 68f 78f
6:36 6 10 mph 1015.8mb 68f 78f
6:30 7 11 mph 1015.6mb 68f 78f
6:24 9 16 mph 1015.6mb 68f 78f
6:18 8 14 mph 1015.5mb 68f 78f
6:12 7 13 mph 1015.5mb 68f 79f
6:06 7 11 mph 1015.4mb 68f 79f
6:00 8 14 mph 1015.3mb 68f 79f
5:54 6 14 mph 1015.2mb 68f 79f
5:48 9 16 mph 1015.2mb 68f 79f
5:42 10 15 mph 1015.1mb 68f 79f
5:36 10 16 mph 1015.1mb 68f 79f
5:30 7 15 mph 1015.1mb 67f 79f
5:24 10 16 mph 1015mb 66f 79f
5:18 7 15 mph 1015mb 66f 80f
5:12 16 22 mph 1014.8mb 66f 79f
5:06 9 14 mph 1014.9mb 66f 79f
5:00 9 16 mph 1015mb 66f 79f
4:54 14 22 mph 1014.9mb 66f 79f
4:48 10 17 mph 1014.8mb 66f 80f
4:42 11 20 mph 1014.8mb 65f 80f
4:36 13 18 mph 1014.7mb 65f 79f
4:30 11 16 mph 1014.8mb 65f 80f
4:24 10 17 mph 1014.7mb 65f 80f
4:18 10 16 mph 1014.7mb 65f 79f
4:12 8 17 mph 1014.6mb 65f 80f
4:06 13 17 mph 1014.7mb 65f 80f
4:00 14 20 mph 1014.6mb 65f 80f
3:54 7 14 mph 1014.5mb 65f 80f
3:48 10 17 mph 1014.4mb 65f 80f
3:42 8 16 mph 1014.4mb 65f 80f
3:36 13 21 mph 1014.3mb 65f 79f
3:30 16 21 mph 1014.3mb 65f 79f
3:24 14 21 mph 1014.3mb 65f 80f
3:18 13 20 mph 1014.3mb 65f 80f
3:12 11 20 mph 1014.4mb 65f 80f
3:06 13 16 mph 1014.3mb 65f 79f
3:00 14 18 mph 1014.3mb 65f 78f
2:54 10 17 mph 1014.3mb 64f 79f
2:48 10 20 mph 1014.3mb 64f 79f
2:42 10 18 mph 1014.3mb 64f 79f
2:36 14 18 mph 1014.3mb 64f 79f
2:30 14 20 mph 1014.1mb 64f 79f
2:24 9 16 mph 1014mb 63f 80f
2:18 10 20 mph 1014mb 63f 79f
2:12 11 16 mph 1014mb 63f 79f
2:06 13 16 mph 1013.9mb 63f 80f
2:00 10 17 mph 1013.9mb 63f 80f
1:54 10 15 mph 1013.9mb 64f 80f
1:48 10 17 mph 1014mb 64f 80f
1:42 10 16 mph 1013.9mb 64f 81f
1:36 14 18 mph 1013.8mb 64f 80f
1:30 10 15 mph 1013.7mb 64f 80f
1:24 10 17 mph 1013.7mb 64f 81f
1:18 9 21 mph 1013.6mb 63f 80f
1:12 11 21 mph 1013.5mb 63f 79f
1:06 8 16 mph 1013.6mb 63f 79f
1:00 10 15 mph 1013.5mb 63f 80f
12:54 7 14 mph 1013.5mb 63f 79f
12:48 11 17 mph 1013.4mb 63f 78f
12:42 14 20 mph 1013.3mb 62f 79f
12:36 10 17 mph 1013.3mb 62f 79f
12:30 11 22 mph 1013.2mb 62f 79f
12:24 9 16 mph 1013.2mb 62f 79f
12:18 8 15 mph 1013.3mb 62f 79f
12:12 11 16 mph 1013.2mb 62f 78f
12:06 9 16 mph 1013.3mb 62f 78f
12:00 9 15 mph 1013.4mb 62f 78f
11:54 11 16 mph 1013.3mb 62f 78f
11:48 7 18 mph 1013.2mb 62f 78f
11:42 10 17 mph 1013mb 61f 78f
11:36 9 17 mph 1013mb 61f 78f
11:30 9 22 mph 1013mb 61f 78f
11:24 8 20 mph 1013mb 61f 78f
11:18 11 20 mph 1013mb 61f 78f
11:12 13 18 mph 1012.9mb 61f 77f
11:06 11 20 mph 1012.8mb 61f 77f
11:00 10 17 mph 1012.7mb 61f 78f
10:54 13 22 mph 1012.7mb 61f 77f
10:48 14 20 mph 1012.6mb 61f 77f
10:42 13 18 mph 1012.6mb 61f 77f
10:36 11 20 mph 1012.6mb 61f 77f
10:30 15 22 mph 1012.5mb 61f 77f
10:24 14 24 mph 1012.4mb 61f 76f
10:18 13 21 mph 1012.4mb 61f 77f
10:12 9 14 mph 1012.4mb 61f 77f
10:06 9 14 mph 1012.5mb 61f 76f
10:00 11 17 mph 1012.5mb 61f 76f
9:54 10 15 mph 1012.5mb 61f 76f
9:48 14 20 mph 1012.4mb 61f 76f
9:42 15 18 mph 1012.3mb 61f 76f
9:36 10 18 mph 1012.3mb 61f 76f
9:30 9 16 mph 1012.3mb 61f 76f
9:24 9 17 mph 1012.3mb 61f 76f
9:18 10 15 mph 1012.3mb 61f 75f
9:12 8 13 mph 1012.3mb 61f 75f
9:06 8 11 mph 1012.3mb 61f 75f
9:00 8 15 mph 1012.3mb 61f 74f
8:54 9 17 mph 1012.3mb 61f 74f
8:48 8 14 mph 1012.2mb 61f 74f
8:42 7 14 mph 1012.2mb 61f 73f
8:36 8 14 mph 1012.2mb 61f 73f
8:30 9 14 mph 1012.2mb 61f 73f
8:24 9 14 mph 1012.2mb 61f 72f
8:18 9 14 mph 1012.1mb 61f 72f
8:12 10 14 mph 1012.1mb 61f 72f
8:06 10 15 mph 1012.1mb 61f 72f
8:00 10 14 mph 1012.1mb 61f 72f
7:54 7 13 mph 1012mb 61f 72f
7:48 7 13 mph 1012mb 61f 72f
7:42 8 13 mph 1011.9mb 61f 72f
7:36 6 9 mph 1011.8mb 61f 71f
7:30 7 10 mph 1011.8mb 61f 71f
7:24 6 9 mph 1011.7mb 61f 71f
7:18 6 9 mph 1011.6mb 62f 71f
7:12 6 8 mph 1011.6mb 62f 71f
7:06 6 8 mph 1011.5mb 63f 70f
7:00 5 8 mph 1011.4mb 64f 70f
6:54 6 8 mph 1011.4mb 64f 69f
6:48 6 9 mph 1011.4mb 64f 69f
6:42 6 8 mph 1011.3mb 64f 69f
6:36 5 8 mph 1011.2mb 64f 69f
6:30 6 9 mph 1011.2mb 64f 69f
6:24 5 8 mph 1011.1mb 64f 69f
6:18 6 9 mph 1011mb 64f 69f
6:12 6 8 mph 1011mb 64f 68f
6:06 6 8 mph 1011mb 64f 68f
6:00 6 8 mph 1010.9mb 64f 68f
5:54 6 8 mph 1010.8mb 64f 68f
5:48 5 7 mph 1010.7mb 64f 68f
5:42 5 7 mph 1010.6mb 64f 68f
5:36 6 7 mph 1010.5mb 64f 68f
5:30 5 7 mph 1010.4mb 64f 68f
5:24 6 8 mph 1010.3mb 64f 68f
5:18 6 8 mph 1010.3mb 64f 68f
5:12 7 8 mph 1010.2mb 64f 68f
5:06 6 8 mph 1010.2mb 64f 69f
5:00 6 8 mph 1010.2mb 64f 69f
4:54 6 8 mph 1010.1mb 64f 69f
4:48 6 9 mph 1010.1mb 64f 69f
4:42 7 9 mph 1010.1mb 64f 69f
4:36 7 9 mph 1010mb 64f 69f
4:30 6 9 mph 1010.1mb 64f 69f
4:24 7 9 mph 1010.1mb 64f 69f
4:18 6 8 mph 1010mb 64f 69f
4:12 6 8 mph 1010mb 63f 69f
4:06 6 9 mph 1009.9mb 63f 69f
4:00 7 9 mph 1009.8mb 63f 69f
3:54 8 9 mph 1009.8mb 63f 69f
3:48 7 9 mph 1009.8mb 63f 68f
3:42 6 8 mph 1009.8mb 63f 69f
3:36 6 8 mph 1009.9mb 63f 69f
3:30 6 8 mph 1009.9mb 63f 68f
3:24 6 8 mph 1010mb 63f 68f
3:18 6 8 mph 1009.9mb 63f 68f
3:12 5 8 mph 1009.9mb 63f 67f
3:06 6 8 mph 1009.9mb 63f 67f
3:00 6 9 mph 1009.9mb 63f 67f
2:54 5 6 mph 1009.9mb 63f 67f
2:48 5 8 mph 1009.9mb 63f -
2:42 6 7 mph 1009.9mb 63f -
2:36 5 6 mph 1009.9mb 63f -
2:30 3 6 mph 1009.8mb 63f 66f
2:24 3 5 mph 1009.8mb 63f 66f
2:18 2 3 mph 1009.9mb 63f 66f
2:12 2 2 mph 1009.9mb 63f 66f
2:06 1 5 mph 1009.9mb 63f 66f
2:00 2 5 mph 1009.8mb 62f 66f
1:54 3 5 mph 1009.8mb 62f 66f
1:48 2 6 mph 1009.9mb 62f 65f
1:18 1 3 mph 1010mb 63f 65f
1:12 2 3 mph 1010.1mb 63f 64f
1:06 2 2 mph 1010.1mb 63f 63f
1:00 2 2 mph 1010mb 63f 63f
12:54 1 2 mph 1010mb 63f 63f
12:48  -  1 mph 1010.1mb 63f 63f
12:42  -  1 mph 1010.2mb 63f 64f
12:36  -  1 mph 1010.2mb 63f 63f
12:30  -  2 mph 1010.2mb 63f 63f
12:24 1 2 mph 1010.2mb 62f 63f
12:18  -  1 mph 1010.2mb 62f 63f
12:12  -  1 mph 1010.1mb 62f 64f
12:06 1 2 mph 1010.1mb 62f 64f
12:00 1 1 mph 1010.1mb 62f 64f
sam. 08/19 11:54  -  1 mph 1010mb 62f 63f
11:48  -  1 mph 1010mb 62f 63f
11:42  -  0 mph 1010mb 62f 63f
11:36  -  0 mph 1009.9mb 62f 63f
11:30  -  0 mph 1009.8mb 62f 63f
11:24  -  0 mph 1009.8mb 62f 63f
11:18  -  1 mph 1009.7mb 62f 63f
11:12  -  1 mph 1009.8mb 62f 63f
11:06  -  1 mph 1009.7mb 62f 63f
11:00 1 1 mph 1009.6mb 61f 63f
10:54 1 2 mph 1009.6mb 61f 63f
10:48 1 1 mph 1009.6mb 61f 63f
10:42 1 1 mph 1009.6mb 61f 63f
10:36 1 2 mph 1009.6mb 61f 63f
10:30 2 2 mph 1009.6mb 61f 63f
10:24 2 3 mph 1009.7mb 61f 63f
10:18 3 3 mph 1009.7mb 61f 63f
10:12 2 3 mph 1009.7mb 61f 63f
10:06 1 1 mph 1009.7mb 61f 63f
10:00 1 2 mph 1009.7mb 61f 63f
9:54 2 3 mph 1009.6mb 61f 63f
9:48 2 2 mph 1009.6mb 61f 63f
9:42  -  1 mph 1009.5mb 61f 64f
9:36  -  2 mph 1009.5mb 61f 64f
9:30 2 2 mph 1009.6mb 61f 64f
9:24 1 2 mph 1009.5mb 61f 64f
9:18 1 3 mph 1009.4mb 61f 64f
9:12 3 3 mph 1009.4mb 62f 64f
9:06 3 6 mph 1009.4mb 62f 64f
9:00 5 6 mph 1009.3mb 62f 64f
8:54 5 6 mph 1009.3mb 62f 64f
8:48 6 7 mph 1009.2mb 62f 64f
8:42 6 7 mph 1009.2mb 62f 64f
8:36 3 5 mph 1009.2mb 62f 64f
8:30  -  1 mph 1009.2mb 62f 64f
8:24  -  2 mph 1009.2mb 62f 64f
8:18 2 3 mph 1009.1mb 62f 64f
8:12 3 6 mph 1009.1mb 62f 64f
8:06 6 7 mph 1009.1mb 62f 64f
8:00 6 7 mph 1009mb 62f 64f
7:54 6 7 mph 1009mb 62f 64f
7:48 6 7 mph 1009mb 62f 64f
7:42 7 9 mph 1008.9mb 63f 64f
7:36 8 9 mph 1008.9mb 63f 64f
7:30 8 8 mph 1008.9mb 63f 64f
7:24 6 6 mph 1008.8mb 63f 64f
7:18 6 8 mph 1008.7mb 63f 64f
7:12 8 11 mph 1008.7mb 63f 64f
7:06 11 13 mph 1008.7mb 63f 64f
7:00 11 15 mph 1008.7mb 63f 64f
6:54 11 16 mph 1008.7mb 63f 65f
6:48 14 15 mph 1008.7mb 63f 65f
6:42 11 15 mph 1008.7mb 63f 65f
6:36 13 15 mph 1008.7mb 63f 66f
6:30 11 15 mph 1008.6mb 63f 66f
6:24 13 16 mph 1008.6mb 63f 66f
6:18 14 17 mph 1008.6mb 64f 66f
6:12 15 17 mph 1008.5mb 64f 66f
6:06 14 16 mph 1008.5mb 65f 66f
6:00 13 15 mph 1008.5mb 65f 66f
5:54 14 16 mph 1008.5mb 65f 66f
5:48 13 16 mph 1008.5mb 65f 66f
5:42 13 15 mph 1008.5mb 65f 66f
5:36 11 13 mph 1008.5mb 65f 66f
5:30 8 11 mph 1008.5mb 65f 66f
5:24 8 9 mph 1008.5mb 65f 66f
5:18 6 10 mph 1008.5mb 65f 65f
5:12 8 9 mph 1008.4mb 64f 65f
5:06 8 13 mph 1008.4mb 64f 66f
5:00 11 14 mph 1008.4mb 64f 66f
4:54 10 11 mph 1008.5mb 64f 66f
4:48 10 11 mph 1008.5mb 64f 66f
4:42 9 11 mph 1008.5mb 64f 67f
4:36 9 11 mph 1008.4mb 64f 67f
4:30 10 14 mph 1008.4mb 63f 67f
4:24 11 14 mph 1008.5mb 63f 67f
4:18 9 11 mph 1008.5mb 63f 67f
4:12 7 11 mph 1008.6mb 63f 67f
4:06 9 11 mph 1008.6mb 63f 67f
4:00 11 15 mph 1008.5mb 63f 67f
3:54 10 14 mph 1008.5mb 63f 67f
3:48 10 16 mph 1008.5mb 63f 66f
3:42 13 15 mph 1008.6mb 63f 66f
3:36 9 11 mph 1008.6mb 63f 67f
3:30 8 10 mph 1008.6mb 63f 67f
3:24 9 13 mph 1008.6mb 63f 67f
3:18 9 13 mph 1008.6mb 63f 67f
3:12 10 13 mph 1008.7mb 63f 67f
3:06 10 13 mph 1008.7mb 63f 67f
3:00 9 13 mph 1008.7mb 62f 67f
2:54 9 11 mph 1008.8mb 62f 67f
2:48 9 11 mph 1008.8mb 62f 67f
2:42 10 13 mph 1008.9mb 62f 66f
2:36 9 13 mph 1008.9mb 62f 66f
2:30 10 13 mph 1008.9mb 62f 66f
2:24 9 11 mph 1008.9mb 62f 67f
2:18 9 13 mph 1008.9mb 62f 66f
2:12 11 14 mph 1008.9mb 61f 66f
2:06 11 14 mph 1009mb 61f 66f
2:00 10 14 mph 1008.9mb 61f 66f
1:54 11 14 mph 1009mb 61f 66f
1:48 11 14 mph 1009mb 61f 66f
1:42 11 14 mph 1009.1mb 61f 66f
1:36 9 11 mph 1009.1mb 61f 67f
1:30 9 11 mph 1009.1mb 61f 67f
1:24 9 11 mph 1009.1mb 61f 67f
1:18 8 10 mph 1009.1mb 61f 67f
1:12 9 10 mph 1009.1mb 61f 67f
1:06 7 9 mph 1009.1mb 61f 67f
1:00 7 9 mph 1009.1mb 62f 67f
12:54 8 10 mph 1009.2mb 62f 67f
12:48 7 8 mph 1009.2mb 62f 67f
12:42 7 8 mph 1009.3mb 62f 67f
12:36 6 7 mph 1009.3mb 62f 67f
12:30 6 7 mph 1009.4mb 62f 67f
12:24 6 7 mph 1009.4mb 62f 67f
12:18 7 9 mph 1009.5mb 61f 66f
12:12 8 9 mph 1009.6mb 61f 66f
12:06 8 9 mph 1009.6mb 61f 66f
12:00 8 9 mph 1009.7mb 61f 66f
11:54 7 8 mph 1009.7mb 61f 66f
11:48 7 7 mph 1009.7mb 61f 66f
11:42 7 7 mph 1009.7mb 61f 66f
11:36 6 7 mph 1009.7mb 61f 67f
11:30 6 6 mph 1009.5mb 61f 68f
11:24 3 5 mph 1009.5mb 61f 68f
11:18 2 3 mph 1009.6mb 61f 68f
11:12 2 6 mph 1009.6mb 61f 69f
11:06 2 3 mph 1009.5mb 61f 70f
11:00 1 3 mph 1009.5mb 61f 69f
10:54 1 6 mph 1009.5mb 61f 69f
10:48 2 6 mph 1009.5mb 61f 69f
10:42 5 7 mph 1009.5mb 61f 68f
10:36 3 5 mph 1009.5mb 60f 68f
10:30 5 6 mph 1009.5mb 60f 68f
10:24 3 6 mph 1009.4mb 60f 67f
10:18 3 5 mph 1009.5mb 60f 67f
10:12 2 5 mph 1009.6mb 60f 67f
10:06 3 5 mph 1009.7mb 60f 66f
10:00 5 6 mph 1009.6mb 60f 66f
9:54 6 7 mph 1009.6mb 60f 66f
9:48 5 7 mph 1009.6mb 60f 66f
9:42 6 7 mph 1009.4mb 60f 65f
9:36 5 8 mph 1009.4mb 60f 65f
9:30 6 8 mph 1009.4mb 60f 65f
9:24 5 7 mph 1009.4mb 60f 65f
9:18 6 7 mph 1009.3mb 60f 65f
9:12 7 9 mph 1009.4mb 60f 65f
9:06 7 9 mph 1009.5mb 60f 64f
9:00 8 10 mph 1009.4mb 60f 65f
8:54 6 9 mph 1009.4mb 60f 64f
8:48 8 10 mph 1009.5mb 60f 64f
8:42 7 8 mph 1009.5mb 60f 64f
8:36 7 10 mph 1009.5mb 60f 64f
8:30 6 8 mph 1009.6mb 60f 64f
8:24 7 9 mph 1009.5mb 60f 64f
8:18 7 9 mph 1009.4mb 60f 64f
8:12 6 10 mph 1009.4mb 60f 64f
8:06 7 9 mph 1009.4mb 60f 63f
8:00 6 8 mph 1009.4mb 60f 63f
7:54 6 8 mph 1009.4mb 60f 63f
7:48 6 9 mph 1009.4mb 60f 63f
7:42 8 10 mph 1009.4mb 60f 63f
7:36 8 9 mph 1009.4mb 60f 63f
7:30 7 10 mph 1009.5mb 60f 63f
7:24 8 10 mph 1009.4mb 60f 63f
7:18 8 11 mph 1009.4mb 60f 62f
7:12 9 13 mph 1009.2mb 60f 62f
7:06 7 9 mph 1009.3mb 60f 62f
7:00 7 9 mph 1009.3mb 60f 62f
6:54 8 9 mph 1009.4mb 60f 62f
6:48 7 9 mph 1009.3mb 60f 62f
6:42 6 8 mph 1009.3mb 60f 62f
6:36 7 8 mph 1009.3mb 60f 62f
6:30 7 8 mph 1009.3mb 60f 62f
6:24 6 8 mph 1009.3mb 60f 62f
6:18 7 9 mph 1009.2mb 60f 62f
6:12 6 8 mph 1009.2mb 61f 62f
6:06 6 7 mph 1009mb 61f 62f
6:00 6 8 mph 1009mb 61f 62f
5:54 5 8 mph 1008.9mb 61f 62f
5:48 6 8 mph 1008.8mb 62f 62f
5:42 6 10 mph 1008.7mb 62f 62f
5:36 7 9 mph 1008.7mb 62f 62f
5:30 6 7 mph 1008.7mb 62f 62f
5:24 7 9 mph 1008.7mb 62f 62f
5:18 7 8 mph 1008.6mb 62f 62f
5:12 6 8 mph 1008.7mb 62f 62f
5:06 6 9 mph 1008.8mb 62f 62f
5:00 7 10 mph 1008.7mb 62f 62f
4:54 6 8 mph 1008.7mb 62f 62f
4:48 6 8 mph 1008.6mb 62f 62f
4:42 7 10 mph 1008.4mb 62f 62f
4:36 8 10 mph 1008.3mb 62f 62f
4:30 7 10 mph 1008.3mb 62f 62f
4:24 8 10 mph 1008.1mb 62f 62f
4:18 8 10 mph 1008.2mb 62f 62f
4:12 7 9 mph 1008.3mb 62f 62f
4:06 7 9 mph 1008.4mb 62f 62f
4:00 7 8 mph 1008.4mb 62f 62f
3:54 6 7 mph 1008.3mb 62f 62f
3:48 6 7 mph 1008.4mb 62f 62f
3:42 5 7 mph 1008.5mb 62f 62f
3:36 6 7 mph 1008.7mb 62f 62f
3:30 6 7 mph 1008.7mb 61f 62f
3:24 5 7 mph 1008.7mb 61f 62f
3:18 6 7 mph 1008.7mb 61f 62f
3:12 6 7 mph 1008.7mb 61f 62f
3:06 5 7 mph 1008.6mb 61f 62f
3:00 5 7 mph 1008.5mb 61f 62f
2:54 5 7 mph 1008.6mb 61f 62f
2:48 6 7 mph 1008.6mb 61f -
2:42 5 9 mph 1008.6mb 61f -
2:36 7 11 mph 1008.6mb 61f -
2:30 7 9 mph 1008.6mb 61f 62f
2:24 6 8 mph 1008.9mb 61f 62f
2:18 6 9 mph 1008.8mb 61f 62f
2:12 6 11 mph 1008.8mb 61f 62f
2:06 9 13 mph 1008.7mb 61f 62f
2:00 7 9 mph 1008.8mb 61f 62f
1:54 8 10 mph 1008.9mb 61f 62f
1:48 7 9 mph 1009mb 61f 62f
1:42 7 9 mph 1009.1mb 61f 62f
1:36 9 10 mph 1009mb 61f 62f
1:30 10 11 mph 1009mb 61f 62f
1:24 7 11 mph 1009.1mb 61f 62f
1:18 9 13 mph 1009mb 61f 62f
1:12 8 11 mph 1009.2mb 61f 62f
1:06 8 9 mph 1009.1mb 61f 62f
1:00 6 9 mph 1009.2mb 61f 63f
12:54 7 8 mph 1009.2mb 61f 63f
12:48 6 7 mph 1009.2mb 61f 63f
12:42 5 9 mph 1009.1mb 61f 63f
12:36 6 7 mph 1009.3mb 61f 63f
12:30 7 8 mph 1009.5mb 61f 63f
12:24 8 9 mph 1009.7mb 61f 63f
12:18 6 8 mph 1009.9mb 61f 63f
12:12 6 9 mph 1009.9mb 60f 63f
12:06 8 10 mph 1009.8mb 60f 63f
12:00 7 10 mph 1009.8mb 60f 63f
ven. 08/18 11:54 10 13 mph 1009.7mb 60f 63f
11:48 8 10 mph 1009.8mb 60f 63f
11:42 6 9 mph 1009.6mb 60f 63f
11:36 6 8 mph 1009.5mb 60f 63f
11:30 8 9 mph 1009.6mb 60f 63f
11:24 7 11 mph 1009.4mb 60f 63f
11:18 11 13 mph 1009.5mb 60f 63f
11:12 9 10 mph 1009.6mb 60f 63f
11:06 8 10 mph 1009.9mb 60f 64f
11:00 9 13 mph 1009.8mb 60f 64f
10:54 10 14 mph 1009.8mb 60f 64f
10:48 10 14 mph 1009.8mb 60f 64f
10:42 9 10 mph 1009.9mb 60f 64f
10:36 7 8 mph 1009.7mb 60f 64f
10:30 7 10 mph 1009.6mb 60f 64f
10:24 9 13 mph 1009.8mb 60f 64f
10:18 9 11 mph 1009.8mb 60f 65f
10:12 8 13 mph 1009.7mb 60f 65f
10:06 11 14 mph 1009.6mb 60f 65f
10:00 7 9 mph 1009.7mb 60f 66f
9:54 6 7 mph 1009.4mb 60f 65f
9:48 1 3 mph 1009.3mb 60f 66f
9:42 3 7 mph 1009.4mb 60f 66f
9:36 3 6 mph 1009.4mb 60f 66f
9:30 1 2 mph 1009.5mb 60f 66f
9:24  -  1 mph 1009.7mb 60f 66f
9:18  -  2 mph 1009.7mb 60f 66f
9:12 2 2 mph 1009.7mb 60f 65f
9:06 2 3 mph 1009.7mb 60f 66f
9:00 1 2 mph 1009.8mb 60f 66f
8:54  -  1 mph 1009.8mb 60f 66f
8:48 2 3 mph 1009.8mb 60f 66f
8:42 3 5 mph 1009.6mb 60f 67f
8:36 3 5 mph 1009.7mb 60f 67f